sensor_id;sensor_type;location;lat;lon;timestamp;temperature;humidity
78541;SHT31;67835;51.968;5.646;2023-06-19T00:00:34;25.2;45.3
78541;SHT31;67835;51.968;5.646;2023-06-19T00:03:04;25.2;45.6
78541;SHT31;67835;51.968;5.646;2023-06-19T00:05:32;25.2;45.9
78541;SHT31;67835;51.968;5.646;2023-06-19T00:08:03;25.2;46.0
78541;SHT31;67835;51.968;5.646;2023-06-19T00:10:33;25.2;46.1
78541;SHT31;67835;51.968;5.646;2023-06-19T00:13:01;25.2;46.2
78541;SHT31;67835;51.968;5.646;2023-06-19T00:15:31;25.2;46.3
78541;SHT31;67835;51.968;5.646;2023-06-19T00:17:59;25.2;46.3
78541;SHT31;67835;51.968;5.646;2023-06-19T00:20:28;25.2;46.5
78541;SHT31;67835;51.968;5.646;2023-06-19T00:22:58;25.2;46.5
78541;SHT31;67835;51.968;5.646;2023-06-19T00:25:27;25.1;46.6
78541;SHT31;67835;51.968;5.646;2023-06-19T00:27:55;25.1;46.9
78541;SHT31;67835;51.968;5.646;2023-06-19T00:30:24;25.1;47.1
78541;SHT31;67835;51.968;5.646;2023-06-19T00:32:53;25.1;47.3
78541;SHT31;67835;51.968;5.646;2023-06-19T00:35:25;25.0;47.2
78541;SHT31;67835;51.968;5.646;2023-06-19T00:37:54;25.0;47.4
78541;SHT31;67835;51.968;5.646;2023-06-19T00:40:30;25.0;47.2
78541;SHT31;67835;51.968;5.646;2023-06-19T00:43:02;25.0;47.3
78541;SHT31;67835;51.968;5.646;2023-06-19T00:45:31;25.0;47.5
78541;SHT31;67835;51.968;5.646;2023-06-19T00:48:03;25.0;47.3
78541;SHT31;67835;51.968;5.646;2023-06-19T00:50:33;25.0;47.4
78541;SHT31;67835;51.968;5.646;2023-06-19T00:53:06;25.0;47.3
78541;SHT31;67835;51.968;5.646;2023-06-19T00:55:36;24.9;47.5
78541;SHT31;67835;51.968;5.646;2023-06-19T00:58:06;24.9;47.6
78541;SHT31;67835;51.968;5.646;2023-06-19T01:00:34;24.9;47.7
78541;SHT31;67835;51.968;5.646;2023-06-19T01:03:03;24.8;47.9
78541;SHT31;67835;51.968;5.646;2023-06-19T01:05:32;24.8;48.1
78541;SHT31;67835;51.968;5.646;2023-06-19T01:08:12;24.7;48.2
78541;SHT31;67835;51.968;5.646;2023-06-19T01:10:43;24.7;48.3
78541;SHT31;67835;51.968;5.646;2023-06-19T01:13:19;24.6;48.4
78541;SHT31;67835;51.968;5.646;2023-06-19T01:15:51;24.6;48.6
78541;SHT31;67835;51.968;5.646;2023-06-19T01:18:21;24.5;48.7
78541;SHT31;67835;51.968;5.646;2023-06-19T01:20:51;24.5;49.0
78541;SHT31;67835;51.968;5.646;2023-06-19T01:23:20;24.4;49.2
78541;SHT31;67835;51.968;5.646;2023-06-19T01:25:48;24.4;49.3
78541;SHT31;67835;51.968;5.646;2023-06-19T01:28:17;24.3;49.5
78541;SHT31;67835;51.968;5.646;2023-06-19T01:30:45;24.3;49.7
78541;SHT31;67835;51.968;5.646;2023-06-19T01:33:19;24.2;49.9
78541;SHT31;67835;51.968;5.646;2023-06-19T01:35:50;24.2;50.0
78541;SHT31;67835;51.968;5.646;2023-06-19T01:38:20;24.1;50.3
78541;SHT31;67835;51.968;5.646;2023-06-19T01:40:52;24.0;50.5
78541;SHT31;67835;51.968;5.646;2023-06-19T01:43:23;24.0;50.8
78541;SHT31;67835;51.968;5.646;2023-06-19T01:45:52;23.9;51.0
78541;SHT31;67835;51.968;5.646;2023-06-19T01:48:21;23.9;51.3
78541;SHT31;67835;51.968;5.646;2023-06-19T01:50:51;23.8;51.6
78541;SHT31;67835;51.968;5.646;2023-06-19T01:53:19;23.8;52.0
78541;SHT31;67835;51.968;5.646;2023-06-19T01:55:48;23.7;52.2
78541;SHT31;67835;51.968;5.646;2023-06-19T01:58:17;23.7;52.4
78541;SHT31;67835;51.968;5.646;2023-06-19T02:00:46;23.6;52.5
78541;SHT31;67835;51.968;5.646;2023-06-19T02:03:14;23.6;52.8
78541;SHT31;67835;51.968;5.646;2023-06-19T02:05:43;23.5;52.9
78541;SHT31;67835;51.968;5.646;2023-06-19T02:08:12;23.5;53.2
78541;SHT31;67835;51.968;5.646;2023-06-19T02:10:40;23.4;53.4
78541;SHT31;67835;51.968;5.646;2023-06-19T02:13:09;23.4;53.6
78541;SHT31;67835;51.968;5.646;2023-06-19T02:15:39;23.4;54.1
78541;SHT31;67835;51.968;5.646;2023-06-19T02:18:08;23.3;54.4
78541;SHT31;67835;51.968;5.646;2023-06-19T02:20:39;23.3;54.7
78541;SHT31;67835;51.968;5.646;2023-06-19T02:23:07;23.2;54.9
78541;SHT31;67835;51.968;5.646;2023-06-19T02:25:36;23.2;55.1
78541;SHT31;67835;51.968;5.646;2023-06-19T02:28:04;23.1;55.4
78541;SHT31;67835;51.968;5.646;2023-06-19T02:30:33;23.1;55.7
78541;SHT31;67835;51.968;5.646;2023-06-19T02:33:03;23.0;55.9
78541;SHT31;67835;51.968;5.646;2023-06-19T02:35:31;23.0;56.3
78541;SHT31;67835;51.968;5.646;2023-06-19T02:38:00;23.0;56.5
78541;SHT31;67835;51.968;5.646;2023-06-19T02:40:31;23.0;56.8
78541;SHT31;67835;51.968;5.646;2023-06-19T02:42:59;23.0;56.9
78541;SHT31;67835;51.968;5.646;2023-06-19T02:45:27;23.0;57.0
78541;SHT31;67835;51.968;5.646;2023-06-19T02:47:56;22.9;57.2
78541;SHT31;67835;51.968;5.646;2023-06-19T02:50:25;22.9;57.4
78541;SHT31;67835;51.968;5.646;2023-06-19T02:52:53;22.9;57.6
78541;SHT31;67835;51.968;5.646;2023-06-19T02:55:21;22.9;57.8
78541;SHT31;67835;51.968;5.646;2023-06-19T02:57:50;22.9;57.8
78541;SHT31;67835;51.968;5.646;2023-06-19T03:00:19;22.9;57.9
78541;SHT31;67835;51.968;5.646;2023-06-19T03:02:48;22.9;58.0
78541;SHT31;67835;51.968;5.646;2023-06-19T03:05:19;22.9;58.1
78541;SHT31;67835;51.968;5.646;2023-06-19T03:07:47;22.9;58.2
78541;SHT31;67835;51.968;5.646;2023-06-19T03:10:16;22.9;58.3
78541;SHT31;67835;51.968;5.646;2023-06-19T03:12:45;22.9;58.4
78541;SHT31;67835;51.968;5.646;2023-06-19T03:15:16;22.9;58.4
78541;SHT31;67835;51.968;5.646;2023-06-19T03:17:45;22.9;58.5
78541;SHT31;67835;51.968;5.646;2023-06-19T03:20:13;22.9;58.6
78541;SHT31;67835;51.968;5.646;2023-06-19T03:22:42;22.9;58.6
78541;SHT31;67835;51.968;5.646;2023-06-19T03:25:11;22.9;58.7
78541;SHT31;67835;51.968;5.646;2023-06-19T03:27:41;22.9;58.7
78541;SHT31;67835;51.968;5.646;2023-06-19T03:30:12;22.9;58.7
78541;SHT31;67835;51.968;5.646;2023-06-19T03:32:45;22.9;58.7
78541;SHT31;67835;51.968;5.646;2023-06-19T03:35:13;22.9;58.8
78541;SHT31;67835;51.968;5.646;2023-06-19T03:37:42;22.9;58.8
78541;SHT31;67835;51.968;5.646;2023-06-19T03:40:13;22.9;58.9
78541;SHT31;67835;51.968;5.646;2023-06-19T03:42:42;22.9;59.0
78541;SHT31;67835;51.968;5.646;2023-06-19T03:45:11;22.9;59.0
78541;SHT31;67835;51.968;5.646;2023-06-19T03:47:39;22.9;59.1
78541;SHT31;67835;51.968;5.646;2023-06-19T03:50:08;22.9;59.2
78541;SHT31;67835;51.968;5.646;2023-06-19T03:52:37;22.9;59.2
78541;SHT31;67835;51.968;5.646;2023-06-19T03:55:07;22.9;59.3
78541;SHT31;67835;51.968;5.646;2023-06-19T03:57:37;22.9;59.3
78541;SHT31;67835;51.968;5.646;2023-06-19T04:00:07;22.9;59.4
78541;SHT31;67835;51.968;5.646;2023-06-19T04:02:37;22.9;59.4
78541;SHT31;67835;51.968;5.646;2023-06-19T04:05:07;22.9;59.6
78541;SHT31;67835;51.968;5.646;2023-06-19T04:07:37;22.9;59.6
78541;SHT31;67835;51.968;5.646;2023-06-19T04:10:07;22.9;59.7
78541;SHT31;67835;51.968;5.646;2023-06-19T04:12:38;22.9;59.7
78541;SHT31;67835;51.968;5.646;2023-06-19T04:15:07;22.9;59.7
78541;SHT31;67835;51.968;5.646;2023-06-19T04:17:36;22.9;59.8
78541;SHT31;67835;51.968;5.646;2023-06-19T04:20:06;22.9;59.8
78541;SHT31;67835;51.968;5.646;2023-06-19T04:22:37;22.9;60.0
78541;SHT31;67835;51.968;5.646;2023-06-19T04:25:08;22.9;60.0
78541;SHT31;67835;51.968;5.646;2023-06-19T04:27:38;22.9;60.1
78541;SHT31;67835;51.968;5.646;2023-06-19T04:30:07;22.9;60.2
78541;SHT31;67835;51.968;5.646;2023-06-19T04:32:37;22.9;60.4
78541;SHT31;67835;51.968;5.646;2023-06-19T04:35:07;22.9;60.7
78541;SHT31;67835;51.968;5.646;2023-06-19T04:37:36;22.9;61.0
78541;SHT31;67835;51.968;5.646;2023-06-19T04:40:06;22.9;61.3
78541;SHT31;67835;51.968;5.646;2023-06-19T04:42:37;22.9;61.6
78541;SHT31;67835;51.968;5.646;2023-06-19T04:45:08;22.9;61.9
78541;SHT31;67835;51.968;5.646;2023-06-19T04:47:36;22.9;62.4
78541;SHT31;67835;51.968;5.646;2023-06-19T04:50:10;22.9;62.9
78541;SHT31;67835;51.968;5.646;2023-06-19T04:52:38;22.9;63.0
78541;SHT31;67835;51.968;5.646;2023-06-19T04:55:08;22.9;63.1
78541;SHT31;67835;51.968;5.646;2023-06-19T04:57:37;22.9;63.2
78541;SHT31;67835;51.968;5.646;2023-06-19T05:00:07;22.9;63.2
78541;SHT31;67835;51.968;5.646;2023-06-19T05:02:37;22.9;63.4
78541;SHT31;67835;51.968;5.646;2023-06-19T05:05:10;22.8;63.4
78541;SHT31;67835;51.968;5.646;2023-06-19T05:07:39;22.8;63.6
78541;SHT31;67835;51.968;5.646;2023-06-19T05:10:08;22.8;63.7
78541;SHT31;67835;51.968;5.646;2023-06-19T05:12:37;22.8;63.5
78541;SHT31;67835;51.968;5.646;2023-06-19T05:15:07;22.8;63.6
78541;SHT31;67835;51.968;5.646;2023-06-19T05:17:36;22.8;63.6
78541;SHT31;67835;51.968;5.646;2023-06-19T05:20:06;22.7;63.7
78541;SHT31;67835;51.968;5.646;2023-06-19T05:22:35;22.7;63.7
78541;SHT31;67835;51.968;5.646;2023-06-19T05:25:07;22.7;63.8
78541;SHT31;67835;51.968;5.646;2023-06-19T05:27:36;22.7;64.0
78541;SHT31;67835;51.968;5.646;2023-06-19T05:30:06;22.7;64.1
78541;SHT31;67835;51.968;5.646;2023-06-19T05:32:37;22.7;64.1
78541;SHT31;67835;51.968;5.646;2023-06-19T05:35:07;22.8;64.0
78541;SHT31;67835;51.968;5.646;2023-06-19T05:37:36;22.8;64.1
78541;SHT31;67835;51.968;5.646;2023-06-19T05:40:07;22.8;63.9
78541;SHT31;67835;51.968;5.646;2023-06-19T05:42:36;22.8;63.6
78541;SHT31;67835;51.968;5.646;2023-06-19T05:45:06;22.9;63.5
78541;SHT31;67835;51.968;5.646;2023-06-19T05:47:35;22.9;63.5
78541;SHT31;67835;51.968;5.646;2023-06-19T05:50:04;22.9;63.3
78541;SHT31;67835;51.968;5.646;2023-06-19T05:52:33;23.0;63.1
78541;SHT31;67835;51.968;5.646;2023-06-19T05:55:02;23.0;62.8
78541;SHT31;67835;51.968;5.646;2023-06-19T05:57:31;23.0;62.5
78541;SHT31;67835;51.968;5.646;2023-06-19T06:00:00;23.0;62.4
78541;SHT31;67835;51.968;5.646;2023-06-19T06:02:29;23.1;61.9
78541;SHT31;67835;51.968;5.646;2023-06-19T06:04:58;23.1;61.3
78541;SHT31;67835;51.968;5.646;2023-06-19T06:07:27;23.1;61.6
78541;SHT31;67835;51.968;5.646;2023-06-19T06:09:58;23.1;61.7
78541;SHT31;67835;51.968;5.646;2023-06-19T06:12:27;23.2;61.0
78541;SHT31;67835;51.968;5.646;2023-06-19T06:14:55;23.2;60.9
78541;SHT31;67835;51.968;5.646;2023-06-19T06:17:24;23.2;60.3
78541;SHT31;67835;51.968;5.646;2023-06-19T06:19:54;23.3;60.1
78541;SHT31;67835;51.968;5.646;2023-06-19T06:22:23;23.3;59.9
78541;SHT31;67835;51.968;5.646;2023-06-19T06:24:51;23.4;59.3
78541;SHT31;67835;51.968;5.646;2023-06-19T06:27:21;23.4;59.3
78541;SHT31;67835;51.968;5.646;2023-06-19T06:29:49;23.5;57.9
78541;SHT31;67835;51.968;5.646;2023-06-19T06:32:20;23.5;57.6
78541;SHT31;67835;51.968;5.646;2023-06-19T06:34:51;23.6;56.8
78541;SHT31;67835;51.968;5.646;2023-06-19T06:37:19;23.6;56.5
78541;SHT31;67835;51.968;5.646;2023-06-19T06:39:49;23.7;57.0
78541;SHT31;67835;51.968;5.646;2023-06-19T06:42:18;23.8;56.8
78541;SHT31;67835;51.968;5.646;2023-06-19T06:44:46;23.9;55.9
78541;SHT31;67835;51.968;5.646;2023-06-19T06:47:15;24.0;56.0
78541;SHT31;67835;51.968;5.646;2023-06-19T06:49:43;24.0;55.6
78541;SHT31;67835;51.968;5.646;2023-06-19T06:52:12;24.1;54.5
78541;SHT31;67835;51.968;5.646;2023-06-19T06:54:40;24.1;53.2
78541;SHT31;67835;51.968;5.646;2023-06-19T06:57:09;24.2;53.4
78541;SHT31;67835;51.968;5.646;2023-06-19T06:59:39;24.2;53.4
78541;SHT31;67835;51.968;5.646;2023-06-19T07:02:10;24.2;53.6
78541;SHT31;67835;51.968;5.646;2023-06-19T07:04:39;24.3;54.1
78541;SHT31;67835;51.968;5.646;2023-06-19T07:07:07;24.3;54.1
78541;SHT31;67835;51.968;5.646;2023-06-19T07:09:35;24.3;54.3
78541;SHT31;67835;51.968;5.646;2023-06-19T07:12:05;24.4;54.1
78541;SHT31;67835;51.968;5.646;2023-06-19T07:14:34;24.4;54.0
78541;SHT31;67835;51.968;5.646;2023-06-19T07:17:02;24.4;53.7
78541;SHT31;67835;51.968;5.646;2023-06-19T07:19:33;24.5;54.0
78541;SHT31;67835;51.968;5.646;2023-06-19T07:22:02;24.5;53.1
78541;SHT31;67835;51.968;5.646;2023-06-19T07:24:32;24.5;53.1
78541;SHT31;67835;51.968;5.646;2023-06-19T07:27:01;24.5;52.5
78541;SHT31;67835;51.968;5.646;2023-06-19T07:29:30;24.6;51.2
78541;SHT31;67835;51.968;5.646;2023-06-19T07:31:59;24.6;50.9
78541;SHT31;67835;51.968;5.646;2023-06-19T07:34:29;24.7;50.7
78541;SHT31;67835;51.968;5.646;2023-06-19T07:36:57;24.8;50.7
78541;SHT31;67835;51.968;5.646;2023-06-19T07:39:26;24.9;50.6
78541;SHT31;67835;51.968;5.646;2023-06-19T07:41:54;24.9;50.0
78541;SHT31;67835;51.968;5.646;2023-06-19T07:44:23;25.0;50.0
78541;SHT31;67835;51.968;5.646;2023-06-19T07:46:52;25.0;49.8
78541;SHT31;67835;51.968;5.646;2023-06-19T07:49:20;25.0;49.7
78541;SHT31;67835;51.968;5.646;2023-06-19T07:51:50;25.1;49.3
78541;SHT31;67835;51.968;5.646;2023-06-19T07:54:19;25.1;48.7
78541;SHT31;67835;51.968;5.646;2023-06-19T07:56:47;25.2;48.5
78541;SHT31;67835;51.968;5.646;2023-06-19T07:59:16;25.2;48.4
78541;SHT31;67835;51.968;5.646;2023-06-19T08:01:44;25.1;48.7
78541;SHT31;67835;51.968;5.646;2023-06-19T08:04:15;25.1;49.4
78541;SHT31;67835;51.968;5.646;2023-06-19T08:06:44;25.1;49.0
78541;SHT31;67835;51.968;5.646;2023-06-19T08:09:14;25.2;48.3
78541;SHT31;67835;51.968;5.646;2023-06-19T08:11:43;25.2;48.7
78541;SHT31;67835;51.968;5.646;2023-06-19T08:14:11;25.2;48.7
78541;SHT31;67835;51.968;5.646;2023-06-19T08:16:40;25.2;48.5
78541;SHT31;67835;51.968;5.646;2023-06-19T08:19:08;25.2;48.3
78541;SHT31;67835;51.968;5.646;2023-06-19T08:21:37;25.3;48.8
78541;SHT31;67835;51.968;5.646;2023-06-19T08:24:06;25.4;48.4
78541;SHT31;67835;51.968;5.646;2023-06-19T08:26:37;25.5;48.7
78541;SHT31;67835;51.968;5.646;2023-06-19T08:29:05;25.7;48.4
78541;SHT31;67835;51.968;5.646;2023-06-19T08:31:34;25.8;47.7
78541;SHT31;67835;51.968;5.646;2023-06-19T08:34:05;25.9;47.8
78541;SHT31;67835;51.968;5.646;2023-06-19T08:36:35;26.0;47.4
78541;SHT31;67835;51.968;5.646;2023-06-19T08:39:04;26.1;47.6
78541;SHT31;67835;51.968;5.646;2023-06-19T08:41:34;26.1;47.1
78541;SHT31;67835;51.968;5.646;2023-06-19T08:44:04;26.2;46.9
78541;SHT31;67835;51.968;5.646;2023-06-19T08:46:34;26.2;46.9
78541;SHT31;67835;51.968;5.646;2023-06-19T08:49:04;26.3;46.6
78541;SHT31;67835;51.968;5.646;2023-06-19T08:51:37;26.3;47.1
78541;SHT31;67835;51.968;5.646;2023-06-19T08:54:07;26.4;46.8
78541;SHT31;67835;51.968;5.646;2023-06-19T08:56:36;26.5;47.0
78541;SHT31;67835;51.968;5.646;2023-06-19T08:59:13;26.6;46.9
78541;SHT31;67835;51.968;5.646;2023-06-19T09:01:47;26.8;46.4
78541;SHT31;67835;51.968;5.646;2023-06-19T09:04:19;26.9;46.0
78541;SHT31;67835;51.968;5.646;2023-06-19T09:06:51;27.3;45.9
78541;SHT31;67835;51.968;5.646;2023-06-19T09:09:22;27.8;44.2
78541;SHT31;67835;51.968;5.646;2023-06-19T09:12:01;28.1;43.0
78541;SHT31;67835;51.968;5.646;2023-06-19T09:14:34;28.3;41.7
78541;SHT31;67835;51.968;5.646;2023-06-19T09:17:06;28.3;42.4
78541;SHT31;67835;51.968;5.646;2023-06-19T09:19:35;28.4;41.9
78541;SHT31;67835;51.968;5.646;2023-06-19T09:22:06;28.4;41.8
78541;SHT31;67835;51.968;5.646;2023-06-19T09:24:38;28.4;41.8
78541;SHT31;67835;51.968;5.646;2023-06-19T09:27:08;28.5;42.1
78541;SHT31;67835;51.968;5.646;2023-06-19T09:29:41;28.6;41.9
78541;SHT31;67835;51.968;5.646;2023-06-19T09:32:18;28.6;41.7
78541;SHT31;67835;51.968;5.646;2023-06-19T09:34:48;28.7;41.4
78541;SHT31;67835;51.968;5.646;2023-06-19T09:37:22;28.7;41.4
78541;SHT31;67835;51.968;5.646;2023-06-19T09:39:53;28.8;41.1
78541;SHT31;67835;51.968;5.646;2023-06-19T09:42:32;28.8;41.1
78541;SHT31;67835;51.968;5.646;2023-06-19T09:45:03;28.8;41.3
78541;SHT31;67835;51.968;5.646;2023-06-19T09:47:36;28.8;41.8
78541;SHT31;67835;51.968;5.646;2023-06-19T09:50:07;28.9;42.4
78541;SHT31;67835;51.968;5.646;2023-06-19T09:52:35;29.3;41.8
78541;SHT31;67835;51.968;5.646;2023-06-19T09:55:04;29.9;40.4
78541;SHT31;67835;51.968;5.646;2023-06-19T09:57:36;30.8;38.5
78541;SHT31;67835;51.968;5.646;2023-06-19T10:00:08;31.5;37.3
78541;SHT31;67835;51.968;5.646;2023-06-19T10:02:39;32.0;35.7
78541;SHT31;67835;51.968;5.646;2023-06-19T10:05:10;32.3;34.9
78541;SHT31;67835;51.968;5.646;2023-06-19T10:07:43;32.5;34.5
78541;SHT31;67835;51.968;5.646;2023-06-19T10:10:24;32.6;34.2
78541;SHT31;67835;51.968;5.646;2023-06-19T10:12:55;32.6;34.1
78541;SHT31;67835;51.968;5.646;2023-06-19T10:15:25;32.6;34.5
78541;SHT31;67835;51.968;5.646;2023-06-19T10:18:02;32.7;34.1
78541;SHT31;67835;51.968;5.646;2023-06-19T10:20:34;32.8;34.1
78541;SHT31;67835;51.968;5.646;2023-06-19T10:23:06;32.9;34.2
78541;SHT31;67835;51.968;5.646;2023-06-19T10:25:37;33.1;34.7
78541;SHT31;67835;51.968;5.646;2023-06-19T10:28:19;33.3;33.1
78541;SHT31;67835;51.968;5.646;2023-06-19T10:30:54;33.5;33.2
78541;SHT31;67835;51.968;5.646;2023-06-19T10:33:26;33.6;32.9
78541;SHT31;67835;51.968;5.646;2023-06-19T10:35:55;33.6;32.8
78541;SHT31;67835;51.968;5.646;2023-06-19T10:38:24;33.7;32.6
78541;SHT31;67835;51.968;5.646;2023-06-19T10:40:53;33.7;33.3
78541;SHT31;67835;51.968;5.646;2023-06-19T10:43:24;33.8;32.5
78541;SHT31;67835;51.968;5.646;2023-06-19T10:45:58;33.9;32.5
78541;SHT31;67835;51.968;5.646;2023-06-19T10:48:27;34.1;32.2
78541;SHT31;67835;51.968;5.646;2023-06-19T10:50:56;34.3;32.0
78541;SHT31;67835;51.968;5.646;2023-06-19T10:53:26;34.3;31.8
78541;SHT31;67835;51.968;5.646;2023-06-19T10:56:00;34.4;31.5
78541;SHT31;67835;51.968;5.646;2023-06-19T10:58:29;34.5;32.1
78541;SHT31;67835;51.968;5.646;2023-06-19T11:00:58;34.5;31.7
78541;SHT31;67835;51.968;5.646;2023-06-19T11:03:28;34.6;31.3
78541;SHT31;67835;51.968;5.646;2023-06-19T11:05:57;34.6;31.0
78541;SHT31;67835;51.968;5.646;2023-06-19T11:08:28;34.5;31.1
78541;SHT31;67835;51.968;5.646;2023-06-19T11:10:57;34.5;31.6
78541;SHT31;67835;51.968;5.646;2023-06-19T11:13:25;34.4;31.5
78541;SHT31;67835;51.968;5.646;2023-06-19T11:15:57;34.3;31.5
78541;SHT31;67835;51.968;5.646;2023-06-19T11:18:26;34.2;31.6
78541;SHT31;67835;51.968;5.646;2023-06-19T11:20:55;34.2;32.2
78541;SHT31;67835;51.968;5.646;2023-06-19T11:23:29;34.2;32.2
78541;SHT31;67835;51.968;5.646;2023-06-19T11:26:05;34.3;31.6
78541;SHT31;67835;51.968;5.646;2023-06-19T11:28:35;34.4;31.9
78541;SHT31;67835;51.968;5.646;2023-06-19T11:31:04;34.4;31.3
78541;SHT31;67835;51.968;5.646;2023-06-19T11:33:33;34.4;31.4
78541;SHT31;67835;51.968;5.646;2023-06-19T11:36:02;34.4;32.0
78541;SHT31;67835;51.968;5.646;2023-06-19T11:38:31;34.4;31.2
78541;SHT31;67835;51.968;5.646;2023-06-19T11:41:01;34.5;31.1
78541;SHT31;67835;51.968;5.646;2023-06-19T11:43:31;34.5;31.0
78541;SHT31;67835;51.968;5.646;2023-06-19T11:46:04;34.5;30.7
78541;SHT31;67835;51.968;5.646;2023-06-19T11:48:36;34.4;31.7
78541;SHT31;67835;51.968;5.646;2023-06-19T11:51:05;34.4;30.9
78541;SHT31;67835;51.968;5.646;2023-06-19T11:53:34;34.4;30.6
78541;SHT31;67835;51.968;5.646;2023-06-19T11:56:04;34.4;30.5
78541;SHT31;67835;51.968;5.646;2023-06-19T11:58:33;34.4;31.1
78541;SHT31;67835;51.968;5.646;2023-06-19T12:01:01;34.4;30.8
78541;SHT31;67835;51.968;5.646;2023-06-19T12:03:30;34.3;30.7
78541;SHT31;67835;51.968;5.646;2023-06-19T12:06:00;34.3;31.8
78541;SHT31;67835;51.968;5.646;2023-06-19T12:08:29;34.3;30.0
78541;SHT31;67835;51.968;5.646;2023-06-19T12:10:57;34.3;30.3
78541;SHT31;67835;51.968;5.646;2023-06-19T12:13:26;34.3;31.0
78541;SHT31;67835;51.968;5.646;2023-06-19T12:15:54;34.3;31.2
78541;SHT31;67835;51.968;5.646;2023-06-19T12:18:23;34.4;31.6
78541;SHT31;67835;51.968;5.646;2023-06-19T12:20:52;34.5;30.4
78541;SHT31;67835;51.968;5.646;2023-06-19T12:23:23;34.5;30.8
78541;SHT31;67835;51.968;5.646;2023-06-19T12:25:52;34.6;30.6
78541;SHT31;67835;51.968;5.646;2023-06-19T12:28:21;34.6;30.6
78541;SHT31;67835;51.968;5.646;2023-06-19T12:30:52;34.7;31.0
78541;SHT31;67835;51.968;5.646;2023-06-19T12:33:26;34.8;30.1
78541;SHT31;67835;51.968;5.646;2023-06-19T12:35:57;34.8;29.8
78541;SHT31;67835;51.968;5.646;2023-06-19T12:38:26;34.9;30.6
78541;SHT31;67835;51.968;5.646;2023-06-19T12:40:54;34.9;30.0
78541;SHT31;67835;51.968;5.646;2023-06-19T12:43:25;35.0;30.5
78541;SHT31;67835;51.968;5.646;2023-06-19T12:45:53;35.1;29.4
78541;SHT31;67835;51.968;5.646;2023-06-19T12:48:23;35.2;29.0
78541;SHT31;67835;51.968;5.646;2023-06-19T12:50:52;35.2;29.2
78541;SHT31;67835;51.968;5.646;2023-06-19T12:53:22;35.3;28.9
78541;SHT31;67835;51.968;5.646;2023-06-19T12:55:57;35.4;28.3
78541;SHT31;67835;51.968;5.646;2023-06-19T12:58:26;35.4;28.6
78541;SHT31;67835;51.968;5.646;2023-06-19T13:00:56;35.4;28.0
78541;SHT31;67835;51.968;5.646;2023-06-19T13:03:24;35.4;28.1
78541;SHT31;67835;51.968;5.646;2023-06-19T13:05:53;35.4;28.4
78541;SHT31;67835;51.968;5.646;2023-06-19T13:08:22;35.5;28.6
78541;SHT31;67835;51.968;5.646;2023-06-19T13:10:50;35.5;27.2
78541;SHT31;67835;51.968;5.646;2023-06-19T13:13:19;35.6;28.1
78541;SHT31;67835;51.968;5.646;2023-06-19T13:15:47;35.6;27.7
78541;SHT31;67835;51.968;5.646;2023-06-19T13:18:17;35.7;28.7
78541;SHT31;67835;51.968;5.646;2023-06-19T13:20:49;35.7;27.6
78541;SHT31;67835;51.968;5.646;2023-06-19T13:23:17;35.8;28.1
78541;SHT31;67835;51.968;5.646;2023-06-19T13:25:46;35.9;27.7
78541;SHT31;67835;51.968;5.646;2023-06-19T13:28:14;35.9;27.5
78541;SHT31;67835;51.968;5.646;2023-06-19T13:30:43;36.0;28.3
78541;SHT31;67835;51.968;5.646;2023-06-19T13:33:12;36.0;28.3
78541;SHT31;67835;51.968;5.646;2023-06-19T13:35:43;36.0;27.8
78541;SHT31;67835;51.968;5.646;2023-06-19T13:38:13;36.1;27.6
78541;SHT31;67835;51.968;5.646;2023-06-19T13:40:42;36.1;27.6
78541;SHT31;67835;51.968;5.646;2023-06-19T13:43:10;36.1;27.6
78541;SHT31;67835;51.968;5.646;2023-06-19T13:45:39;36.2;27.4
78541;SHT31;67835;51.968;5.646;2023-06-19T13:48:09;36.2;27.6
78541;SHT31;67835;51.968;5.646;2023-06-19T13:50:38;36.2;27.9
78541;SHT31;67835;51.968;5.646;2023-06-19T13:53:06;36.2;26.4
78541;SHT31;67835;51.968;5.646;2023-06-19T13:55:35;36.2;28.0
78541;SHT31;67835;51.968;5.646;2023-06-19T13:58:04;36.0;27.5
78541;SHT31;67835;51.968;5.646;2023-06-19T14:00:33;36.0;27.6
78541;SHT31;67835;51.968;5.646;2023-06-19T14:03:03;35.9;27.3
78541;SHT31;67835;51.968;5.646;2023-06-19T14:05:35;35.9;27.5
78541;SHT31;67835;51.968;5.646;2023-06-19T14:08:05;35.9;27.4
78541;SHT31;67835;51.968;5.646;2023-06-19T14:10:35;35.9;27.2
78541;SHT31;67835;51.968;5.646;2023-06-19T14:13:04;35.8;27.0
78541;SHT31;67835;51.968;5.646;2023-06-19T14:15:32;35.7;27.5
78541;SHT31;67835;51.968;5.646;2023-06-19T14:18:01;35.7;27.4
78541;SHT31;67835;51.968;5.646;2023-06-19T14:20:32;35.6;27.8
78541;SHT31;67835;51.968;5.646;2023-06-19T14:23:00;35.6;27.9
78541;SHT31;67835;51.968;5.646;2023-06-19T14:25:28;35.6;27.8
78541;SHT31;67835;51.968;5.646;2023-06-19T14:27:57;35.6;28.6
78541;SHT31;67835;51.968;5.646;2023-06-19T14:30:25;35.6;28.0
78541;SHT31;67835;51.968;5.646;2023-06-19T14:32:54;35.7;28.0
78541;SHT31;67835;51.968;5.646;2023-06-19T14:35:22;35.7;27.9
78541;SHT31;67835;51.968;5.646;2023-06-19T14:37:51;35.7;28.6
78541;SHT31;67835;51.968;5.646;2023-06-19T14:40:22;35.7;28.1
78541;SHT31;67835;51.968;5.646;2023-06-19T14:42:51;35.7;28.1
78541;SHT31;67835;51.968;5.646;2023-06-19T14:45:19;35.7;27.9
78541;SHT31;67835;51.968;5.646;2023-06-19T14:47:48;35.8;27.7
78541;SHT31;67835;51.968;5.646;2023-06-19T14:50:17;35.8;27.8
78541;SHT31;67835;51.968;5.646;2023-06-19T14:52:45;35.8;28.5
78541;SHT31;67835;51.968;5.646;2023-06-19T14:55:14;35.9;27.6
78541;SHT31;67835;51.968;5.646;2023-06-19T14:57:43;35.9;27.4
78541;SHT31;67835;51.968;5.646;2023-06-19T15:00:13;35.9;27.5
78541;SHT31;67835;51.968;5.646;2023-06-19T15:02:41;36.0;27.9
78541;SHT31;67835;51.968;5.646;2023-06-19T15:05:10;36.0;27.8
78541;SHT31;67835;51.968;5.646;2023-06-19T15:07:38;36.1;27.5
78541;SHT31;67835;51.968;5.646;2023-06-19T15:10:07;36.2;27.5
78541;SHT31;67835;51.968;5.646;2023-06-19T15:12:37;36.3;28.0
78541;SHT31;67835;51.968;5.646;2023-06-19T15:15:07;36.3;27.0
78541;SHT31;67835;51.968;5.646;2023-06-19T15:17:36;36.4;27.8
78541;SHT31;67835;51.968;5.646;2023-06-19T15:20:06;36.4;27.9
78541;SHT31;67835;51.968;5.646;2023-06-19T15:22:36;36.5;28.1
78541;SHT31;67835;51.968;5.646;2023-06-19T15:25:06;36.6;27.0
78541;SHT31;67835;51.968;5.646;2023-06-19T15:27:35;36.7;26.6
78541;SHT31;67835;51.968;5.646;2023-06-19T15:30:05;36.7;27.1
78541;SHT31;67835;51.968;5.646;2023-06-19T15:32:34;36.7;27.8
78541;SHT31;67835;51.968;5.646;2023-06-19T15:35:03;36.7;27.4
78541;SHT31;67835;51.968;5.646;2023-06-19T15:37:32;36.7;27.0
78541;SHT31;67835;51.968;5.646;2023-06-19T15:40:01;36.7;26.4
78541;SHT31;67835;51.968;5.646;2023-06-19T15:42:31;36.6;26.2
78541;SHT31;67835;51.968;5.646;2023-06-19T15:44:59;36.5;27.1
78541;SHT31;67835;51.968;5.646;2023-06-19T15:47:28;36.4;27.3
78541;SHT31;67835;51.968;5.646;2023-06-19T15:49:58;36.4;27.3
78541;SHT31;67835;51.968;5.646;2023-06-19T15:52:27;36.4;27.2
78541;SHT31;67835;51.968;5.646;2023-06-19T15:54:56;36.3;27.0
78541;SHT31;67835;51.968;5.646;2023-06-19T15:57:27;36.3;26.9
78541;SHT31;67835;51.968;5.646;2023-06-19T15:59:55;36.3;27.1
78541;SHT31;67835;51.968;5.646;2023-06-19T16:02:24;36.2;27.4
78541;SHT31;67835;51.968;5.646;2023-06-19T16:04:53;36.2;27.1
78541;SHT31;67835;51.968;5.646;2023-06-19T16:07:22;36.1;27.5
78541;SHT31;67835;51.968;5.646;2023-06-19T16:09:53;36.0;26.9
78541;SHT31;67835;51.968;5.646;2023-06-19T16:12:22;36.0;26.9
78541;SHT31;67835;51.968;5.646;2023-06-19T16:14:51;35.9;27.3
78541;SHT31;67835;51.968;5.646;2023-06-19T16:17:19;35.8;27.5